Time;durP1;ratioP1;P1;durP2;ratioP2;P2;SDS_P1;SDS_P2;PMS_P1;PMS_P2;Temp;Humidity;BMP_temperature;BMP_pressure;BME280_temperature;BME280_humidity;BME280_pressure;Samples;Min_cycle;Max_cycle;Signal;HPM_P1;HPM_P2
2023/03/30 00:02:30;;;;;;;10.35;4.90;;;;;;;10.50;100.00;100613.31;5006052;28;20037;-89
2023/03/30 00:05:01;;;;;;;12.88;4.63;;;;;;;10.60;100.00;100611.28;5004114;28;20025;-89
2023/03/30 00:07:29;;;;;;;9.05;4.25;;;;;;;10.63;100.00;100617.25;5000413;28;20029;-89
2023/03/30 00:09:55;;;;;;;8.10;4.35;;;;;;;10.69;100.00;100595.50;5001538;28;20117;-89
2023/03/30 00:12:20;;;;;;;9.38;4.63;;;;;;;10.74;100.00;100592.75;4998742;28;20096;-89
2023/03/30 00:14:46;;;;;;;7.63;4.18;;;;;;;10.77;100.00;100588.34;5010248;28;20194;-89
2023/03/30 00:17:11;;;;;;;9.95;4.15;;;;;;;10.77;100.00;100577.13;5003651;28;20041;-90
2023/03/30 00:19:37;;;;;;;8.63;4.05;;;;;;;10.90;100.00;100575.88;4993837;28;20076;-89
2023/03/30 00:22:07;;;;;;;7.57;3.88;;;;;;;10.93;100.00;100557.63;5003243;28;20049;-90
2023/03/30 00:24:34;;;;;;;12.18;3.47;;;;;;;10.95;100.00;100563.63;4985716;28;20105;-89
2023/03/30 00:27:00;;;;;;;6.75;3.45;;;;;;;10.95;100.00;100568.81;5012614;28;20478;-89
2023/03/30 00:29:26;;;;;;;9.98;3.33;;;;;;;10.96;100.00;100560.13;5003387;28;20094;-90
2023/03/30 00:31:51;;;;;;;8.35;3.30;;;;;;;10.99;100.00;100573.00;4999191;28;20021;-89
2023/03/30 00:34:17;;;;;;;7.57;3.22;;;;;;;11.14;100.00;100585.50;5005534;28;20030;-89
2023/03/30 00:36:45;;;;;;;7.38;3.60;;;;;;;11.08;100.00;100550.25;5005261;28;20037;-89
2023/03/30 00:39:11;;;;;;;5.32;3.28;;;;;;;11.17;100.00;100554.31;4998182;28;20030;-89
2023/03/30 00:41:37;;;;;;;6.03;3.25;;;;;;;11.27;100.00;100575.59;4999167;28;20141;-89
2023/03/30 00:44:06;;;;;;;5.88;3.03;;;;;;;11.15;100.00;100543.13;4995291;28;20117;-90
2023/03/30 00:46:32;;;;;;;4.97;3.33;;;;;;;11.19;100.00;100551.66;4981264;28;20080;-89
2023/03/30 00:49:04;;;;;;;8.10;3.38;;;;;;;11.19;100.00;100544.72;4997733;28;20441;-89
2023/03/30 00:51:33;;;;;;;7.60;3.30;;;;;;;11.17;100.00;100537.88;4996365;28;20097;-89
2023/03/30 00:54:06;;;;;;;6.07;3.40;;;;;;;11.06;100.00;100530.41;4977154;28;20106;-89
2023/03/30 00:56:32;;;;;;;8.50;3.50;;;;;;;10.98;100.00;100522.06;4979808;28;20026;-89
2023/03/30 00:59:00;;;;;;;4.88;3.17;;;;;;;10.98;100.00;100524.66;4989825;28;20032;-90
2023/03/30 01:01:27;;;;;;;8.07;3.85;;;;;;;10.93;99.74;100523.91;5000805;28;20480;-90
2023/03/30 01:03:56;;;;;;;8.02;3.25;;;;;;;10.89;100.00;100522.31;5005901;28;20033;-89
2023/03/30 01:06:24;;;;;;;8.70;3.53;;;;;;;10.86;100.00;100514.63;4993980;28;20108;-89
2023/03/30 01:08:52;;;;;;;8.20;3.40;;;;;;;10.83;100.00;100527.69;4976578;28;20026;-89
2023/03/30 01:11:17;;;;;;;6.88;3.47;;;;;;;10.78;99.81;100512.25;5003146;28;20160;-89
2023/03/30 01:13:46;;;;;;;7.35;3.17;;;;;;;10.77;100.00;100515.75;5003482;28;20113;-89
2023/03/30 01:16:30;;;;;;;5.43;2.90;;;;;;;10.74;100.00;100513.25;4994396;28;20033;-89
2023/03/30 01:19:23;;;;;;;6.65;3.60;;;;;;;10.71;100.00;100512.50;4992597;28;20041;-89
2023/03/30 01:22:04;;;;;;;6.00;3.30;;;;;;;10.66;100.00;100510.88;5002432;28;20057;-89
2023/03/30 01:25:02;;;;;;;6.93;3.13;;;;;;;10.64;100.00;100509.25;4978071;28;20494;-89
2023/03/30 01:28:10;;;;;;;9.57;3.30;;;;;;;10.64;100.00;100522.22;4998398;28;20030;-89
2023/03/30 01:31:06;;;;;;;7.05;3.28;;;;;;;10.67;100.00;100522.94;4985620;28;20108;-89
2023/03/30 01:33:34;;;;;;;8.07;3.22;;;;;;;10.68;100.00;100521.22;4986177;28;20027;-89
2023/03/30 01:36:21;;;;;;;5.57;2.88;;;;;;;10.73;100.00;100513.28;5001535;28;20037;-89
2023/03/30 01:39:18;;;;;;;5.65;3.10;;;;;;;10.76;100.00;100508.03;5010830;28;20088;-89
2023/03/30 01:42:10;;;;;;;5.65;3.10;;;;;;;10.82;99.10;100506.09;4987907;28;20467;-89
2023/03/30 01:44:47;;;;;;;8.55;2.95;;;;;;;10.90;99.73;100498.94;4979311;28;20498;-89
2023/03/30 01:47:40;;;;;;;7.47;3.30;;;;;;;10.98;99.12;100499.56;4985949;28;20034;-88
2023/03/30 01:50:08;;;;;;;8.07;3.22;;;;;;;10.97;98.52;100494.41;4994610;28;20033;-88
2023/03/30 01:52:39;;;;;;;5.82;2.90;;;;;;;11.03;99.79;100492.47;4997726;28;20023;-88
2023/03/30 01:55:08;;;;;;;8.57;3.25;;;;;;;11.03;98.32;100483.84;4996961;28;20497;-88
2023/03/30 01:57:51;;;;;;;5.70;2.80;;;;;;;11.02;98.57;100477.81;4996078;28;20080;-89
2023/03/30 02:00:22;;;;;;;5.85;2.80;;;;;;;10.86;98.14;100462.75;4996310;28;20046;-88
2023/03/30 02:02:53;;;;;;;5.97;3.00;;;;;;;10.97;97.32;100487.47;4997722;28;20698;-88
2023/03/30 02:05:21;;;;;;;5.68;2.83;;;;;;;11.02;97.34;100490.78;4998136;28;20026;-89
2023/03/30 02:07:59;;;;;;;6.72;2.50;;;;;;;11.06;96.73;100488.91;4997907;28;20026;-88
2023/03/30 02:10:29;;;;;;;7.30;2.40;;;;;;;11.29;95.58;100491.66;4982688;28;20402;-88
2023/03/30 02:12:57;;;;;;;5.15;2.28;;;;;;;11.38;95.35;100477.53;5003828;28;20532;-88
2023/03/30 02:15:25;;;;;;;5.15;2.15;;;;;;;11.65;93.75;100487.00;5000483;28;20064;-89
2023/03/30 02:17:51;;;;;;;4.25;2.40;;;;;;;11.74;93.14;100502.28;4996163;28;20018;-88
2023/03/30 02:20:17;;;;;;;6.50;2.08;;;;;;;11.75;92.61;100471.97;4997538;28;20656;-88
2023/03/30 02:22:44;;;;;;;4.70;1.95;;;;;;;11.84;92.54;100480.31;4978199;28;20031;-88
2023/03/30 02:25:11;;;;;;;5.18;2.15;;;;;;;11.94;91.32;100482.59;5009787;28;20105;-88
2023/03/30 02:27:37;;;;;;;6.72;2.35;;;;;;;12.11;90.76;100498.41;4999387;28;20050;-88
2023/03/30 02:30:07;;;;;;;5.78;2.05;;;;;;;12.10;90.95;100478.53;4981192;28;20119;-88
2023/03/30 02:32:48;;;;;;;7.65;2.30;;;;;;;12.06;90.66;100472.59;4977330;28;20026;-87
2023/03/30 02:35:28;;;;;;;4.78;2.25;;;;;;;12.11;90.00;100482.81;4993732;28;20439;-88
2023/03/30 02:38:08;;;;;;;4.97;2.20;;;;;;;12.04;90.46;100484.78;4995903;28;20026;-88
2023/03/30 02:40:53;;;;;;;7.38;2.30;;;;;;;12.07;91.20;100489.03;4998872;28;20112;-89
2023/03/30 02:43:18;;;;;;;5.22;2.10;;;;;;;12.18;91.26;100497.28;4975528;28;20097;-89
2023/03/30 02:45:49;;;;;;;5.87;2.40;;;;;;;12.26;90.16;100500.47;4990046;28;20074;-88
2023/03/30 02:48:33;;;;;;;6.88;2.40;;;;;;;12.31;89.48;100493.34;4993199;28;20289;-88
2023/03/30 02:51:24;;;;;;;4.63;2.13;;;;;;;12.34;90.42;100497.59;4968908;28;20030;-89
2023/03/30 02:54:11;;;;;;;5.75;2.60;;;;;;;12.22;90.83;100478.94;4999192;28;20033;-88
2023/03/30 02:56:55;;;;;;;4.30;2.50;;;;;;;12.29;89.58;100482.16;4991626;28;20034;-89
2023/03/30 02:59:38;;;;;;;6.95;2.88;;;;;;;12.42;90.26;100498.16;4993284;28;20076;-88
2023/03/30 03:02:12;;;;;;;6.88;2.60;;;;;;;12.36;89.81;100481.03;5007327;28;20109;-88
2023/03/30 03:04:42;;;;;;;;;;;;;;;12.49;91.87;100502.22;5005193;28;20033;-88
2023/03/30 03:07:09;;;;;;;8.15;2.30;;;;;;;12.40;89.47;100484.38;4991576;28;19917;-88
2023/03/30 03:09:35;;;;;;;5.88;2.65;;;;;;;12.47;89.54;100488.44;4993809;28;20046;-88
2023/03/30 03:12:01;;;;;;;6.30;2.70;;;;;;;12.36;90.07;100472.38;4979717;28;20018;-88
2023/03/30 03:14:28;;;;;;;9.57;2.80;;;;;;;12.38;89.52;100475.78;5012023;28;20107;-88
2023/03/30 03:16:56;;;;;;;8.32;3.10;;;;;;;12.39;89.68;100475.72;5009278;28;20025;-89
2023/03/30 03:19:22;;;;;;;9.05;3.10;;;;;;;12.38;89.24;100475.78;5000282;28;20053;-88
2023/03/30 03:21:48;;;;;;;8.65;2.78;;;;;;;12.36;89.96;100482.78;4999952;28;20057;-88
2023/03/30 03:24:16;;;;;;;6.53;2.95;;;;;;;12.43;89.58;100497.25;4994890;28;20137;-88
2023/03/30 03:26:42;;;;;;;5.20;2.58;;;;;;;12.47;89.03;100498.84;4992079;28;20175;-88
2023/03/30 03:29:07;;;;;;;7.05;3.03;;;;;;;12.50;89.16;100499.56;4994125;28;20505;-88
2023/03/30 03:31:34;;;;;;;6.32;2.95;;;;;;;12.51;89.02;100501.25;4997404;28;20034;-88
2023/03/30 03:34:00;;;;;;;5.30;2.50;;;;;;;12.53;89.32;100485.63;5001001;28;20063;-88
2023/03/30 03:36:25;;;;;;;6.13;2.58;;;;;;;12.57;87.94;100489.78;5001294;28;20109;-88
2023/03/30 03:38:51;;;;;;;5.65;2.70;;;;;;;12.52;88.16;100469.16;4983844;28;20046;-89
2023/03/30 03:41:16;;;;;;;5.63;2.13;;;;;;;12.54;87.37;100469.13;4979290;28;20025;-88
2023/03/30 03:43:42;;;;;;;5.53;2.10;;;;;;;12.62;87.22;100469.69;4991251;28;20538;-88
2023/03/30 03:46:07;;;;;;;5.30;2.30;;;;;;;12.61;87.35;100460.19;4985197;28;20025;-88
2023/03/30 03:48:33;;;;;;;6.13;2.28;;;;;;;12.55;87.86;100442.22;4997382;28;20022;-88
2023/03/30 03:50:58;;;;;;;6.80;2.50;;;;;;;12.62;87.12;100449.69;4990953;28;20042;-88
2023/03/30 03:53:26;;;;;;;4.15;2.03;;;;;;;12.55;87.48;100450.00;5000682;28;20475;-88
2023/03/30 03:55:52;;;;;;;6.82;2.50;;;;;;;12.48;88.79;100452.00;5001392;28;20027;-88
2023/03/30 03:58:18;;;;;;;5.40;2.63;;;;;;;12.49;88.21;100458.00;4962881;28;20029;-88
2023/03/30 04:00:44;;;;;;;5.25;2.45;;;;;;;12.43;89.23;100453.91;4979144;28;20058;-88
2023/03/30 04:03:11;;;;;;;5.95;2.42;;;;;;;12.41;89.43;100442.72;4978070;28;20026;-88
2023/03/30 04:05:36;;;;;;;7.18;2.70;;;;;;;12.38;91.02;100436.78;4982165;28;20022;-88
2023/03/30 04:08:03;;;;;;;6.22;3.28;;;;;;;12.30;90.92;100431.88;4977050;28;20023;-88
2023/03/30 04:10:28;;;;;;;6.63;2.60;;;;;;;12.29;91.46;100458.75;5001826;28;20041;-88
2023/03/30 04:12:55;;;;;;;6.35;2.60;;;;;;;12.22;91.31;100457.28;5002560;28;20019;-88
2023/03/30 04:15:21;;;;;;;9.15;2.80;;;;;;;12.16;91.51;100449.72;4975283;28;20058;-88
2023/03/30 04:17:48;;;;;;;6.15;2.50;;;;;;;12.14;91.87;100459.34;5001600;28;20088;-88
2023/03/30 04:20:15;;;;;;;8.98;2.45;;;;;;;12.05;92.05;100446.69;4991833;28;20034;-88
2023/03/30 04:22:41;;;;;;;6.18;2.30;;;;;;;12.16;92.24;100460.97;4994592;28;20113;-88
2023/03/30 04:25:13;;;;;;;6.28;2.38;;;;;;;12.14;92.65;100454.16;5000304;28;20101;-88
2023/03/30 04:27:43;;;;;;;7.50;2.67;;;;;;;12.06;91.92;100436.25;4998591;28;20483;-88
2023/03/30 04:30:12;;;;;;;5.47;2.60;;;;;;;12.10;92.54;100440.41;4977464;28;20022;-88
2023/03/30 04:32:37;;;;;;;9.30;2.85;;;;;;;12.06;93.36;100438.84;4996386;28;20569;-88
2023/03/30 04:35:05;;;;;;;8.80;2.78;;;;;;;12.05;94.39;100444.09;4993184;28;20109;-89
2023/03/30 04:37:31;;;;;;;5.95;2.75;;;;;;;11.97;95.23;100426.16;4994955;28;20104;-88
2023/03/30 04:39:58;;;;;;;7.95;2.70;;;;;;;12.08;95.56;100433.56;4994974;28;20050;-89
2023/03/30 04:42:33;;;;;;;6.65;2.97;;;;;;;11.99;95.48;100428.72;4998011;28;20029;-88
2023/03/30 04:45:06;;;;;;;6.57;2.72;;;;;;;11.99;96.07;100431.31;5003302;28;20048;-88
2023/03/30 04:47:32;;;;;;;6.07;2.67;;;;;;;12.07;96.28;100439.69;4993847;28;20549;-90
2023/03/30 04:49:58;;;;;;;8.02;2.67;;;;;;;12.08;96.29;100437.00;4998409;28;20105;-90
2023/03/30 04:52:23;;;;;;;6.35;3.05;;;;;;;12.04;96.04;100426.78;4993477;28;20026;-89
2023/03/30 04:54:49;;;;;;;5.50;2.90;;;;;;;11.99;96.56;100421.78;4999469;28;20025;-90
2023/03/30 04:57:15;;;;;;;7.88;2.95;;;;;;;12.04;96.50;100426.78;4977890;28;20030;-89
2023/03/30 04:59:41;;;;;;;6.60;2.97;;;;;;;12.02;97.02;100428.59;4990102;28;21536;-89
2023/03/30 05:02:07;;;;;;;9.93;3.38;;;;;;;11.91;97.01;100420.34;4997275;28;20026;-90
2023/03/30 05:04:33;;;;;;;7.05;3.10;;;;;;;11.84;97.55;100423.16;5008496;28;20096;-90
2023/03/30 05:06:59;;;;;;;7.65;3.10;;;;;;;11.82;97.92;100435.34;4992316;28;20046;-90
2023/03/30 05:09:25;;;;;;;9.75;3.28;;;;;;;11.90;98.76;100458.47;4976836;28;20031;-89
2023/03/30 05:11:50;;;;;;;8.95;3.60;;;;;;;11.86;98.93;100470.72;5008734;28;20026;-90
2023/03/30 05:14:16;;;;;;;8.52;3.35;;;;;;;11.93;100.00;100486.09;4966912;28;20026;-89
2023/03/30 05:16:41;;;;;;;10.35;3.83;;;;;;;11.82;100.00;100473.44;4998101;28;20022;-89
2023/03/30 05:19:07;;;;;;;9.73;3.53;;;;;;;11.67;100.00;100489.56;5003695;28;20030;-90
2023/03/30 05:21:33;;;;;;;9.95;3.53;;;;;;;11.43;100.00;100478.22;4992933;28;20148;-89
2023/03/30 05:23:59;;;;;;;10.82;3.63;;;;;;;11.23;100.00;100476.28;4998441;28;20053;-89
2023/03/30 05:26:25;;;;;;;8.38;3.63;;;;;;;11.19;100.00;100479.84;4995271;28;20089;-89
2023/03/30 05:28:51;;;;;;;11.88;4.07;;;;;;;11.09;100.00;100486.25;4993513;28;20113;-89
2023/03/30 05:31:18;;;;;;;8.35;3.78;;;;;;;10.92;100.00;100470.34;5006177;28;20022;-89
2023/03/30 05:33:43;;;;;;;7.78;3.38;;;;;;;10.95;100.00;100494.47;4994275;28;20026;-90
2023/03/30 05:36:09;;;;;;;7.93;3.45;;;;;;;10.88;100.00;100489.50;5004263;28;20037;-90
2023/03/30 05:38:35;;;;;;;9.10;3.40;;;;;;;10.84;100.00;100504.31;5001178;28;20045;-89
2023/03/30 05:41:00;;;;;;;8.40;3.70;;;;;;;10.78;100.00;100490.69;4982467;28;20033;-88
2023/03/30 05:43:26;;;;;;;7.72;3.60;;;;;;;10.78;100.00;100493.28;5008854;28;20046;-90
2023/03/30 05:45:55;;;;;;;8.40;4.00;;;;;;;10.77;100.00;100495.03;4991729;28;20030;-89
2023/03/30 05:48:20;;;;;;;8.07;3.80;;;;;;;10.70;100.00;100480.53;4992688;28;21071;-90
2023/03/30 05:50:48;;;;;;;7.65;3.95;;;;;;;10.77;100.00;100492.44;4981703;28;20505;-90
2023/03/30 05:53:15;;;;;;;10.23;4.22;;;;;;;10.68;100.00;100482.31;4986052;28;20025;-89
2023/03/30 05:55:44;;;;;;;8.82;4.00;;;;;;;10.68;100.00;100477.16;4991092;28;20506;-90
2023/03/30 05:58:09;;;;;;;9.35;3.80;;;;;;;10.75;100.00;100485.59;4988818;28;20382;-90
2023/03/30 06:00:36;;;;;;;8.00;3.70;;;;;;;10.72;100.00;100489.09;4993425;28;20540;-90
2023/03/30 06:03:03;;;;;;;8.90;3.83;;;;;;;10.74;100.00;100482.13;4982970;28;20540;-90
2023/03/30 06:05:29;;;;;;;9.02;4.28;;;;;;;10.79;100.00;100488.03;4975147;28;20026;-89
2023/03/30 06:07:55;;;;;;;8.70;3.70;;;;;;;10.78;100.00;100482.91;4989170;28;20076;-90
2023/03/30 06:10:21;;;;;;;8.93;3.42;;;;;;;10.78;100.00;100488.91;4977972;28;20026;-89
2023/03/30 06:12:46;;;;;;;11.25;3.70;;;;;;;10.83;100.00;100500.03;4979900;28;20023;-90
2023/03/30 06:15:11;;;;;;;10.32;3.60;;;;;;;10.80;100.00;100492.31;4996106;28;20038;-90
2023/03/30 06:17:37;;;;;;;8.70;3.90;;;;;;;10.89;100.00;100514.53;4991573;28;20065;-89
2023/03/30 06:20:10;;;;;;;10.32;4.10;;;;;;;10.87;100.00;100505.94;4993778;28;20026;-90
2023/03/30 06:22:35;;;;;;;9.85;4.13;;;;;;;10.74;100.00;100492.50;5007574;28;20029;-90
2023/03/30 06:25:02;;;;;;;12.00;3.60;;;;;;;10.81;100.00;100513.91;4996050;28;20108;-90
2023/03/30 06:27:30;;;;;;;9.43;3.50;;;;;;;10.76;100.00;100500.25;5003719;28;20502;-90
2023/03/30 06:29:56;;;;;;;9.55;3.70;;;;;;;10.88;100.00;100510.25;4998967;28;20029;-90
2023/03/30 06:32:21;;;;;;;9.25;3.15;;;;;;;10.81;100.00;100493.19;4992055;28;20018;-89
2023/03/30 06:34:47;;;;;;;7.82;3.60;;;;;;;10.92;100.00;100502.31;4993568;28;20030;-89
2023/03/30 06:37:12;;;;;;;14.02;3.92;;;;;;;10.92;100.00;100506.66;5003003;28;20022;-89
2023/03/30 06:39:38;;;;;;;11.23;3.78;;;;;;;11.02;100.00;100510.69;4973758;28;20041;-90
2023/03/30 06:42:05;;;;;;;8.27;3.20;;;;;;;11.04;100.00;100516.69;4994998;28;20402;-89
2023/03/30 06:44:31;;;;;;;11.43;3.65;;;;;;;11.15;100.00;100531.88;4994216;28;20387;-89
2023/03/30 06:46:56;;;;;;;10.88;3.88;;;;;;;11.33;100.00;100536.50;4975575;28;20491;-90
2023/03/30 06:49:22;;;;;;;12.80;3.65;;;;;;;11.54;100.00;100535.81;4995205;28;20030;-89
2023/03/30 06:51:47;;;;;;;7.35;3.40;;;;;;;11.60;100.00;100535.59;4990664;28;20148;-89
2023/03/30 06:54:13;;;;;;;10.90;3.40;;;;;;;11.53;100.00;100534.13;4976795;28;20022;-90
2023/03/30 06:56:38;;;;;;;11.52;3.22;;;;;;;11.52;100.00;100535.03;5009702;28;20156;-89
2023/03/30 06:59:04;;;;;;;12.15;3.30;;;;;;;11.51;100.00;100519.50;5006030;28;20494;-90
2023/03/30 07:01:30;;;;;;;12.77;3.10;;;;;;;11.53;100.00;100528.94;5005125;28;20049;-89
2023/03/30 07:03:55;;;;;;;9.95;3.00;;;;;;;11.46;100.00;100543.03;4998219;28;20438;-90
2023/03/30 07:06:21;;;;;;;8.35;3.00;;;;;;;11.32;100.00;100540.88;4995806;28;20141;-89
2023/03/30 07:08:47;;;;;;;15.02;3.25;;;;;;;11.35;100.00;100532.97;4995975;28;20026;-89
2023/03/30 07:11:14;;;;;;;13.13;3.85;;;;;;;11.70;100.00;100529.22;5007320;28;20093;-89
2023/03/30 07:13:43;;;;;;;10.00;3.17;;;;;;;11.98;100.00;100526.56;4991652;28;20205;-89
2023/03/30 07:16:08;;;;;;;8.20;3.00;;;;;;;12.22;100.00;100533.50;5009150;28;20089;-90
2023/03/30 07:18:39;;;;;;;12.07;3.28;;;;;;;12.45;100.00;100544.84;5004192;28;20030;-89
2023/03/30 07:21:31;;;;;;;12.05;3.13;;;;;;;12.61;100.00;100552.03;4996430;28;20021;-89
2023/03/30 07:24:04;;;;;;;8.95;2.70;;;;;;;12.83;100.00;100559.03;4993426;28;20494;-89
2023/03/30 07:26:30;;;;;;;6.82;2.40;;;;;;;12.96;100.00;100539.47;4980115;28;20079;-90
2023/03/30 07:29:03;;;;;;;10.45;2.45;;;;;;;13.37;100.00;100525.69;4992157;28;20181;-89
2023/03/30 07:31:28;;;;;;;7.82;2.20;;;;;;;13.75;98.89;100541.50;5000610;28;20037;-89
2023/03/30 07:33:54;;;;;;;7.70;2.30;;;;;;;14.05;98.74;100550.66;4987279;28;20018;-89
2023/03/30 07:36:19;;;;;;;7.07;2.00;;;;;;;14.20;95.50;100567.38;4985819;28;20746;-90
2023/03/30 07:38:48;;;;;;;10.25;2.25;;;;;;;14.02;94.26;100550.78;4973949;28;20031;-90
2023/03/30 07:41:36;;;;;;;9.68;2.28;;;;;;;13.87;94.13;100554.03;4988322;28;20030;-91
2023/03/30 07:44:11;;;;;;;7.47;2.30;;;;;;;13.68;95.67;100542.66;4977667;28;20071;-91
2023/03/30 07:46:45;;;;;;;10.05;2.28;;;;;;;13.74;94.20;100548.47;5005506;28;20440;-90
2023/03/30 07:49:19;;;;;;;9.35;2.30;;;;;;;13.59;94.01;100543.03;4969883;28;20121;-91
2023/03/30 07:54:48;;;;;;;6.43;2.15;;;;;;;13.53;96.03;100582.34;4987729;28;20366;-90
2023/03/30 07:57:22;;;;;;;11.48;2.30;;;;;;;13.49;96.22;100578.19;4971379;28;20038;-90
2023/03/30 07:59:48;;;;;;;11.88;2.72;;;;;;;13.34;95.57;100567.47;4991132;28;20065;-89
2023/03/30 08:02:43;;;;;;;10.70;2.63;;;;;;;13.34;97.21;100569.22;5002792;28;20675;-89
2023/03/30 08:05:32;;;;;;;10.88;2.40;;;;;;;13.45;96.18;100580.91;5003329;28;20093;-89
2023/03/30 08:08:06;;;;;;;14.73;2.60;;;;;;;13.57;96.50;100596.97;4997532;28;20461;-89
2023/03/30 08:10:37;;;;;;;;;;;;;;;13.88;97.98;100594.81;5006375;28;20061;-89
2023/03/30 08:13:32;;;;;;;9.68;2.10;;;;;;;13.85;94.26;100572.31;4989461;28;19968;-89
2023/03/30 08:16:14;;;;;;;11.85;2.20;;;;;;;13.83;92.43;100571.56;4989219;28;20034;-89
2023/03/30 08:18:47;;;;;;;11.43;2.47;;;;;;;13.87;93.32;100580.06;4993008;28;20599;-90
2023/03/30 08:21:13;;;;;;;11.85;2.55;;;;;;;14.13;93.24;100578.97;4999610;28;20030;-90
2023/03/30 08:23:39;;;;;;;8.55;2.47;;;;;;;14.51;89.91;100598.22;5013356;28;20469;-90
2023/03/30 08:26:07;;;;;;;14.85;2.88;;;;;;;14.55;89.59;100576.31;4998764;28;20042;-90
2023/03/30 08:28:33;;;;;;;13.77;2.85;;;;;;;14.83;88.92;100594.19;4989001;28;20096;-89
2023/03/30 08:31:05;;;;;;;14.68;2.90;;;;;;;14.88;87.47;100586.97;5011096;28;20034;-89
2023/03/30 08:33:51;;;;;;;16.45;3.50;;;;;;;14.86;84.26;100591.44;5014046;28;20065;-89
2023/03/30 08:36:27;;;;;;;13.52;3.15;;;;;;;14.55;84.08;100586.75;4989631;28;20022;-89
2023/03/30 08:39:04;;;;;;;13.73;3.45;;;;;;;14.69;86.37;100613.06;4985333;28;20510;-90
2023/03/30 08:41:48;;;;;;;10.95;3.10;;;;;;;14.70;85.39;100612.16;4979886;28;20038;-90
2023/03/30 08:44:45;;;;;;;10.27;2.80;;;;;;;14.83;85.11;100604.63;5013783;28;20022;-90
2023/03/30 08:47:47;;;;;;;12.05;3.10;;;;;;;14.74;83.32;100592.00;4988678;28;20045;-89
2023/03/30 08:50:33;;;;;;;9.38;3.22;;;;;;;15.13;83.12;100598.03;4964609;28;20038;-89
2023/03/30 08:53:02;;;;;;;15.57;3.30;;;;;;;15.86;80.92;100572.75;4997891;28;20034;-88
2023/03/30 08:55:42;;;;;;;16.90;3.20;;;;;;;17.14;76.22;100604.41;5013938;28;20038;-88
2023/03/30 08:58:23;;;;;;;12.45;3.28;;;;;;;17.45;71.27;100593.09;4980121;28;20491;-88
2023/03/30 09:00:59;;;;;;;11.98;3.28;;;;;;;17.12;69.82;100602.81;4993832;28;20053;-88
2023/03/30 09:03:47;;;;;;;13.98;3.30;;;;;;;16.50;69.53;100599.13;4978819;28;20029;-88
2023/03/30 09:06:33;;;;;;;10.98;3.00;;;;;;;15.90;71.62;100600.47;5010811;28;20068;-88
2023/03/30 09:09:22;;;;;;;14.05;3.40;;;;;;;16.00;73.80;100602.53;4976607;28;20141;-88
2023/03/30 09:12:30;;;;;;;13.73;3.08;;;;;;;15.86;74.87;100594.53;4994853;28;20101;-87
2023/03/30 09:15:19;;;;;;;10.80;3.42;;;;;;;15.93;72.58;100589.84;4973609;28;20044;-87
2023/03/30 09:17:51;;;;;;;15.55;3.42;;;;;;;15.99;72.02;100594.75;4977854;28;20031;-88
2023/03/30 09:20:36;;;;;;;12.25;3.10;;;;;;;15.98;71.08;100612.22;5004897;28;20030;-88
2023/03/30 09:23:24;;;;;;;9.02;2.97;;;;;;;15.54;72.29;100610.91;5015034;28;20080;-88
2023/03/30 09:26:12;;;;;;;12.80;3.40;;;;;;;15.45;71.59;100627.84;5005282;28;20522;-88
2023/03/30 09:28:56;;;;;;;17.10;3.88;;;;;;;15.22;73.53;100638.50;4993393;28;20075;-88
2023/03/30 09:31:51;;;;;;;14.30;3.42;;;;;;;14.97;74.00;100610.91;4995594;28;20053;-88
2023/03/30 09:34:48;;;;;;;13.88;3.35;;;;;;;14.82;74.59;100626.41;4972733;28;20049;-88
2023/03/30 09:37:24;;;;;;;12.82;3.40;;;;;;;14.70;75.71;100621.75;5014719;28;20109;-88
2023/03/30 09:40:05;;;;;;;10.55;3.58;;;;;;;14.82;74.91;100632.47;5007037;28;20129;-88
2023/03/30 09:43:24;;;;;;;15.73;4.05;;;;;;;14.62;73.87;100635.13;5001439;28;20386;-88
2023/03/30 09:45:54;;;;;;;16.83;4.10;;;;;;;14.57;74.01;100637.94;4971016;28;20039;-88
2023/03/30 09:48:22;;;;;;;12.82;3.90;;;;;;;14.43;75.14;100639.44;4969590;28;20068;-90
2023/03/30 09:50:48;;;;;;;11.43;3.72;;;;;;;14.49;76.62;100636.56;4995444;28;20041;-91
2023/03/30 09:53:25;;;;;;;17.67;4.25;;;;;;;14.79;75.04;100639.63;4995406;28;20026;-90
2023/03/30 09:56:48;;;;;;;15.40;3.72;;;;;;;15.48;71.96;100647.75;4995497;28;20082;-92
2023/03/30 09:59:20;;;;;;;18.63;3.83;;;;;;;15.85;70.30;100658.16;4939040;29;20035;-90
2023/03/30 10:01:52;;;;;;;12.40;3.45;;;;;;;16.02;69.49;100645.13;4947198;29;20072;-91
2023/03/30 10:04:18;;;;;;;12.00;3.45;;;;;;;16.31;68.22;100653.31;4975494;28;20057;-90
2023/03/30 10:06:47;;;;;;;15.65;3.75;;;;;;;16.47;67.66;100656.81;4997381;28;20034;-90
2023/03/30 10:09:13;;;;;;;16.17;4.22;;;;;;;16.71;68.46;100655.59;4990702;28;20053;-92
2023/03/30 10:11:44;;;;;;;18.33;4.65;;;;;;;16.84;65.02;100661.03;5002626;28;20398;-90
2023/03/30 10:14:27;;;;;;;16.83;4.18;;;;;;;17.08;67.22;100667.59;4995379;28;20402;-90
2023/03/30 10:16:54;;;;;;;14.23;3.90;;;;;;;17.01;64.52;100660.13;4993796;28;20068;-89
2023/03/30 10:19:21;;;;;;;18.77;3.88;;;;;;;16.87;62.76;100666.09;4995194;28;20030;-91
2023/03/30 10:21:56;;;;;;;13.95;3.60;;;;;;;16.60;65.08;100671.00;4977254;28;20085;-91
2023/03/30 10:24:25;;;;;;;16.17;4.00;;;;;;;16.34;65.48;100674.91;4976136;28;20027;-90
2023/03/30 10:27:02;;;;;;;15.50;3.80;;;;;;;16.23;67.22;100665.91;4977652;28;20062;-92
2023/03/30 10:29:28;;;;;;;16.33;4.03;;;;;;;16.09;66.28;100672.69;4977944;28;20027;-89
2023/03/30 10:32:14;;;;;;;18.10;3.50;;;;;;;15.99;68.07;100670.56;4994596;28;20483;-90
2023/03/30 10:34:43;;;;;;;11.15;3.45;;;;;;;16.06;67.06;100654.50;4994129;28;20034;-91
2023/03/30 10:37:31;;;;;;;14.52;3.90;;;;;;;16.49;66.32;100676.75;4993444;28;20438;-91
2023/03/30 10:40:00;;;;;;;14.70;3.67;;;;;;;16.79;65.36;100663.88;4998842;28;20046;-90
2023/03/30 10:42:32;;;;;;;17.08;3.85;;;;;;;16.90;65.58;100645.00;5008163;28;20040;-92
2023/03/30 10:45:00;;;;;;;13.55;4.28;;;;;;;17.05;63.78;100670.38;4982135;28;20598;-91
2023/03/30 10:47:59;;;;;;;11.35;3.75;;;;;;;17.20;65.06;100679.19;4978580;28;20053;-92
2023/03/30 10:50:52;;;;;;;16.27;3.75;;;;;;;16.87;62.36;100666.09;4994613;28;20025;-91
2023/03/30 10:53:41;;;;;;;15.13;3.45;;;;;;;16.71;63.97;100679.16;4993036;28;20026;-93
2023/03/30 10:56:43;;;;;;;13.32;3.25;;;;;;;16.39;64.14;100674.66;4978102;28;20019;-93
2023/03/30 10:59:48;;;;;;;15.95;4.15;;;;;;;16.11;66.36;100688.28;4993285;28;20105;-95
2023/03/30 11:02:59;;;;;;;15.02;3.75;;;;;;;16.06;65.71;100685.88;4995575;28;20034;-94
2023/03/30 11:05:35;;;;;;;16.83;3.70;;;;;;;15.92;64.94;100677.00;4980478;28;20108;-93
2023/03/30 11:12:00;;;;;;;15.13;3.30;;;;;;;15.57;66.10;100669.09;4991331;28;20030;-93
2023/03/30 11:15:06;;;;;;;14.80;3.20;;;;;;;15.64;66.43;100694.00;4976741;28;20027;-93
2023/03/30 11:17:50;;;;;;;;;;;;;;;;;;;;;
2023/03/30 11:20:34;;;;;;;17.43;3.03;;;;;;;15.77;68.39;100678.59;4977667;28;19916;-94
2023/03/30 11:23:20;;;;;;;14.35;3.20;;;;;;;16.30;66.08;100691.69;4977748;28;20286;-94
2023/03/30 11:26:12;;;;;;;14.45;3.00;;;;;;;16.54;67.26;100693.06;4977914;28;20046;-94
2023/03/30 11:28:59;;;;;;;12.50;3.28;;;;;;;16.57;66.06;100681.63;4993430;28;20108;-94
2023/03/30 11:32:07;;;;;;;15.55;3.42;;;;;;;16.65;66.64;100670.78;4995251;28;20041;-93
2023/03/30 11:38:41;;;;;;;12.98;3.00;;;;;;;17.02;63.97;100667.06;4928801;29;20039;-93
2023/03/30 11:41:27;;;;;;;15.07;3.33;;;;;;;16.84;65.53;100654.03;4891962;29;20036;-94
2023/03/30 11:44:04;;;;;;;11.48;3.20;;;;;;;16.71;63.83;100646.91;4920767;29;20028;-93
2023/03/30 11:47:00;;;;;;;12.43;3.25;;;;;;;16.53;62.89;100646.88;4920459;29;20040;-93
2023/03/30 11:49:37;;;;;;;14.50;3.00;;;;;;;16.50;64.09;100672.38;4970462;28;20038;-93
2023/03/30 11:52:34;;;;;;;17.02;3.15;;;;;;;16.64;65.47;100679.56;4995408;28;20046;-93
2023/03/30 11:55:40;;;;;;;23.80;3.90;;;;;;;16.44;69.64;100686.63;4981094;28;20035;-92
2023/03/30 11:58:30;;;;;;;15.20;3.53;;;;;;;15.46;78.56;100673.09;4997957;28;20026;-94
2023/03/30 12:04:30;;;;;;;19.25;4.30;;;;;;;14.69;83.03;100675.69;4961455;28;20098;-94
2023/03/30 12:07:13;;;;;;;18.45;4.03;;;;;;;14.81;81.44;100682.97;4978678;28;20034;-92